Central, South Carolina
Current Conditions -  °F | °C
As of 6:54 PM on Saturday 25 Oct 2014 (Local Time) from KCEU Reporting Station
Clear Clear  
Wind Chill: 70°   Ceiling: Unl
Heat Index: 70°   Visibility: 10mi
Dew Point: 42°   Wind: 0mph
Humidity: 36%   Direction: NA
Pressure: 29.99"   Gusts: NA
Location:  34.72°N, 82.78°W
Report Text: KCEU 252254Z AUTO 00000KT 10SM CLR 21/06 A2999 RMK AO2 SLP150 T02110056
Loading
Personal Weather Stations






























Interactive Weather Map
Tropical Storm Tracking
New forecast layout! Learn more

10-Day Weather Forecast

Advertisements
Track Severe Weather on mobile